createdAt,value
2018-08-13T00:00:58.242Z,1.60
2018-08-13T00:01:58.277Z,1.90
2018-08-13T00:02:58.312Z,1.40
2018-08-13T00:03:58.348Z,1.70
2018-08-13T00:04:58.384Z,1.50
2018-08-13T00:05:58.420Z,1.70
2018-08-13T00:06:58.453Z,1.90
2018-08-13T00:07:58.489Z,1.70
2018-08-13T00:08:58.528Z,1.80
2018-08-13T00:09:58.562Z,1.50
2018-08-13T00:10:58.593Z,1.60
2018-08-13T00:11:58.633Z,2.70
2018-08-13T00:12:58.665Z,2.00
2018-08-13T00:13:58.700Z,1.80
2018-08-13T00:14:58.733Z,1.90
2018-08-13T00:15:58.773Z,1.70
2018-08-13T00:16:58.805Z,1.70
2018-08-13T00:17:58.843Z,1.90
2018-08-13T00:18:58.875Z,1.70
2018-08-13T00:19:58.912Z,1.60
2018-08-13T00:20:58.946Z,1.60
2018-08-13T00:21:58.982Z,1.60
2018-08-13T00:22:59.016Z,1.40
2018-08-13T00:23:59.052Z,1.90
2018-08-13T00:24:59.087Z,1.70
2018-08-13T00:25:59.122Z,1.70
2018-08-13T00:26:59.157Z,1.60
2018-08-13T00:27:59.191Z,1.80
2018-08-13T00:28:59.227Z,2.00
2018-08-13T00:29:59.262Z,2.00
2018-08-13T00:30:59.296Z,1.40
2018-08-13T00:31:59.335Z,1.90
2018-08-13T00:32:59.367Z,1.70
2018-08-13T00:33:59.402Z,1.60
2018-08-13T00:34:59.438Z,1.80
2018-08-13T00:35:59.472Z,1.90
2018-08-13T00:36:59.508Z,1.70
2018-08-13T00:37:59.541Z,1.70
2018-08-13T00:38:59.598Z,1.80
2018-08-13T00:39:59.611Z,1.70
2018-08-13T00:40:59.649Z,2.00
2018-08-13T00:41:59.682Z,1.50
2018-08-13T00:42:59.717Z,1.70
2018-08-13T00:43:59.752Z,1.80
2018-08-13T00:44:59.788Z,2.00
2018-08-13T00:45:59.822Z,1.70
2018-08-13T00:46:59.857Z,1.50
2018-08-13T00:47:59.892Z,1.60
2018-08-13T00:48:59.927Z,1.50
2018-08-13T00:49:59.963Z,2.20
2018-08-13T00:50:59.996Z,1.80
2018-08-13T00:52:00.033Z,1.90
2018-08-13T00:53:00.067Z,1.80
2018-08-13T00:54:00.103Z,1.60
2018-08-13T00:55:00.137Z,2.00
2018-08-13T00:56:00.172Z,1.90
2018-08-13T00:57:00.207Z,1.80
2018-08-13T00:58:00.242Z,1.70
2018-08-13T00:59:00.277Z,1.90
2018-08-13T01:00:00.312Z,1.60
2018-08-13T01:01:00.347Z,2.00
2018-08-13T01:02:00.389Z,1.80
2018-08-13T01:03:00.416Z,2.00
2018-08-13T01:04:00.452Z,1.80
2018-08-13T01:05:00.487Z,2.00
2018-08-13T01:06:00.522Z,1.70
2018-08-13T01:07:00.556Z,1.90
2018-08-13T01:08:00.592Z,1.80
2018-08-13T01:09:00.631Z,1.90
2018-08-13T01:10:00.662Z,1.70
2018-08-13T01:11:00.697Z,1.80
2018-08-13T01:12:00.732Z,1.60
2018-08-13T01:13:00.767Z,1.60
2018-08-13T01:14:00.802Z,1.70
2018-08-13T01:15:00.837Z,1.80
2018-08-13T01:16:00.872Z,1.60
2018-08-13T01:17:00.908Z,1.70
2018-08-13T01:18:00.942Z,1.70
2018-08-13T01:19:00.977Z,2.20
2018-08-13T01:20:01.013Z,1.80
2018-08-13T01:21:01.051Z,1.60
2018-08-13T01:22:01.084Z,1.60
2018-08-13T01:23:01.117Z,1.80
2018-08-13T01:24:01.154Z,1.60
2018-08-13T01:25:01.189Z,1.60
2018-08-13T01:26:01.224Z,2.00
2018-08-13T01:27:01.258Z,1.60
2018-08-13T01:28:01.293Z,1.70
2018-08-13T01:29:01.328Z,1.90
2018-08-13T01:30:01.364Z,1.50
2018-08-13T01:31:01.397Z,1.70
2018-08-13T01:32:01.433Z,1.50
2018-08-13T01:33:01.468Z,1.90
2018-08-13T01:34:01.503Z,1.60
2018-08-13T01:35:01.537Z,1.60
2018-08-13T01:36:01.572Z,1.80
2018-08-13T01:37:01.608Z,1.80
2018-08-13T01:38:01.643Z,1.90
2018-08-13T01:39:01.677Z,1.70
2018-08-13T01:40:01.713Z,1.80
2018-08-13T01:41:01.748Z,1.60
2018-08-13T01:42:01.785Z,1.30
2018-08-13T01:43:01.819Z,1.80
2018-08-13T01:44:01.852Z,1.80
2018-08-13T01:45:01.888Z,1.80
2018-08-13T01:46:01.923Z,2.00
2018-08-13T01:47:01.957Z,1.80
2018-08-13T01:48:01.992Z,1.80
2018-08-13T01:49:02.028Z,1.60
2018-08-13T01:50:02.064Z,1.80
2018-08-13T01:51:02.097Z,1.90
2018-08-13T01:52:02.132Z,1.70
2018-08-13T01:53:02.169Z,1.50
2018-08-13T01:54:02.203Z,1.70
2018-08-13T01:55:02.236Z,1.60
2018-08-13T01:56:02.272Z,1.70
2018-08-13T01:57:02.306Z,1.90
2018-08-13T01:58:02.342Z,1.80
2018-08-13T01:59:02.375Z,1.50
2018-08-13T02:00:02.411Z,1.70
2018-08-13T02:01:02.445Z,1.70
2018-08-13T02:02:02.481Z,1.40
2018-08-13T02:03:02.515Z,1.60
2018-08-13T02:04:02.550Z,1.70
2018-08-13T02:05:02.585Z,1.80
2018-08-13T02:06:02.620Z,1.70
2018-08-13T02:07:02.654Z,1.70
2018-08-13T02:08:02.689Z,1.90
2018-08-13T02:09:02.724Z,1.90
2018-08-13T02:10:02.759Z,1.40
2018-08-13T02:11:02.795Z,1.60
2018-08-13T02:12:02.829Z,1.90
2018-08-13T02:13:02.865Z,1.50
2018-08-13T02:14:02.899Z,1.20
2018-08-13T02:15:02.932Z,1.60
2018-08-13T02:16:02.967Z,1.50
2018-08-13T02:17:03.003Z,1.60
2018-08-13T02:18:03.084Z,1.80
2018-08-13T02:19:03.071Z,1.60
2018-08-13T02:20:03.106Z,2.30
2018-08-13T02:21:03.142Z,2.30
2018-08-13T02:22:03.177Z,1.60
2018-08-13T02:23:03.211Z,1.90
2018-08-13T02:24:03.245Z,1.40
2018-08-13T02:25:03.282Z,1.60
2018-08-13T02:26:03.316Z,1.40
2018-08-13T02:27:03.350Z,1.70
2018-08-13T02:28:03.385Z,1.60
2018-08-13T02:29:03.420Z,1.60
2018-08-13T02:30:03.459Z,1.70
2018-08-13T02:31:03.491Z,1.80
2018-08-13T02:32:03.525Z,1.80
2018-08-13T02:33:03.560Z,1.70
2018-08-13T02:34:03.595Z,1.50
2018-08-13T02:35:03.627Z,1.90
2018-08-13T02:36:03.664Z,1.60
2018-08-13T02:37:03.697Z,1.70
2018-08-13T02:38:03.733Z,1.80
2018-08-13T02:39:03.791Z,2.00
2018-08-13T02:40:03.803Z,1.90
2018-08-13T02:41:03.837Z,2.00
2018-08-13T02:42:03.873Z,1.60
2018-08-13T02:43:03.911Z,1.70
2018-08-13T02:44:03.941Z,2.00
2018-08-13T02:45:03.977Z,1.70
2018-08-13T02:46:04.014Z,1.70
2018-08-13T02:47:04.048Z,1.70
2018-08-13T02:48:04.081Z,1.70
2018-08-13T02:49:04.117Z,1.90
2018-08-13T02:50:04.151Z,2.00
2018-08-13T02:51:04.186Z,1.60
2018-08-13T02:52:04.220Z,1.70
2018-08-13T02:53:04.257Z,1.50
2018-08-13T02:54:04.290Z,1.70
2018-08-13T02:55:04.324Z,2.00
2018-08-13T02:56:04.359Z,2.00
2018-08-13T02:57:04.393Z,1.50
2018-08-13T02:58:04.467Z,1.90
2018-08-13T02:59:04.462Z,2.00
2018-08-13T03:00:04.499Z,1.70
2018-08-13T03:01:04.533Z,1.70
2018-08-13T03:02:04.570Z,1.50
2018-08-13T03:03:04.602Z,2.20
2018-08-13T03:04:04.638Z,1.50
2018-08-13T03:05:04.672Z,1.40
2018-08-13T03:06:04.708Z,1.40
2018-08-13T03:07:04.742Z,1.50
2018-08-13T03:08:04.775Z,1.60
2018-08-13T03:09:04.810Z,1.80
2018-08-13T03:10:04.846Z,1.80
2018-08-13T03:11:04.881Z,1.80
2018-08-13T03:12:04.916Z,1.70
2018-08-13T03:13:04.949Z,1.60
2018-08-13T03:14:04.983Z,1.50
2018-08-13T03:15:05.017Z,1.70
2018-08-13T03:16:05.053Z,1.90
2018-08-13T03:17:05.088Z,1.50
2018-08-13T03:18:05.122Z,1.50
2018-08-13T03:19:05.156Z,1.90
2018-08-13T03:20:05.190Z,2.00
2018-08-13T03:21:05.225Z,1.60
2018-08-13T03:22:05.260Z,1.40
2018-08-13T03:23:05.294Z,1.80
2018-08-13T03:24:05.329Z,1.80
2018-08-13T03:25:05.361Z,1.80
2018-08-13T03:26:05.397Z,1.80
2018-08-13T03:27:05.431Z,1.90
2018-08-13T03:28:05.465Z,1.90
2018-08-13T03:29:05.501Z,2.00
2018-08-13T03:30:05.537Z,1.70
2018-08-13T03:31:05.567Z,1.60
2018-08-13T03:32:05.604Z,1.80
2018-08-13T03:33:05.637Z,1.80
2018-08-13T03:34:05.672Z,2.20
2018-08-13T03:35:05.706Z,1.80
2018-08-13T03:36:05.740Z,1.80
2018-08-13T03:37:05.775Z,2.10
2018-08-13T03:38:05.809Z,1.70
2018-08-13T03:39:05.843Z,1.70
2018-08-13T03:40:05.878Z,1.80
2018-08-13T03:41:05.913Z,2.00
2018-08-13T03:42:05.947Z,1.70
2018-08-13T03:43:05.980Z,1.80
2018-08-13T03:44:06.016Z,1.60
2018-08-13T03:45:06.049Z,1.80
2018-08-13T03:46:06.086Z,1.50
2018-08-13T03:47:06.121Z,1.30
2018-08-13T03:48:06.152Z,1.50
2018-08-13T03:49:06.186Z,1.70
2018-08-13T03:50:06.222Z,1.70
2018-08-13T03:51:06.256Z,1.50
2018-08-13T03:52:06.291Z,1.80
2018-08-13T03:53:06.326Z,1.70
2018-08-13T03:54:06.360Z,1.50
2018-08-13T03:55:06.394Z,1.40
2018-08-13T03:56:06.429Z,1.40
2018-08-13T03:57:06.463Z,1.30
2018-08-13T03:58:06.498Z,1.70
2018-08-13T03:59:06.537Z,1.90
2018-08-13T04:00:06.567Z,1.40
2018-08-13T04:01:06.602Z,1.50
2018-08-13T04:02:06.637Z,1.30
2018-08-13T04:03:06.670Z,1.70
2018-08-13T04:04:06.704Z,1.40
2018-08-13T04:05:06.739Z,1.70
2018-08-13T04:06:06.772Z,1.40
2018-08-13T04:07:06.808Z,1.40
2018-08-13T04:08:06.842Z,1.50
2018-08-13T04:09:06.878Z,1.50
2018-08-13T04:10:06.911Z,1.60
2018-08-13T04:11:06.945Z,1.20
2018-08-13T04:12:06.978Z,1.50
2018-08-13T04:13:07.015Z,1.50
2018-08-13T04:14:07.049Z,1.10
2018-08-13T04:15:07.083Z,1.40
2018-08-13T04:16:07.118Z,1.30
2018-08-13T04:17:07.153Z,2.20
2018-08-13T04:18:07.188Z,1.60
2018-08-13T04:19:07.221Z,1.40
2018-08-13T04:20:07.256Z,1.50
2018-08-13T04:21:07.292Z,1.80
2018-08-13T04:22:07.325Z,1.30
2018-08-13T04:23:07.359Z,1.50
2018-08-13T04:24:07.394Z,1.80
2018-08-13T04:25:07.429Z,1.50
2018-08-13T04:26:07.464Z,1.70
2018-08-13T04:27:07.500Z,1.60
2018-08-13T04:28:07.532Z,1.40
2018-08-13T04:29:07.566Z,1.90
2018-08-13T04:30:07.601Z,1.90
2018-08-13T04:31:07.636Z,1.60
2018-08-13T04:32:07.670Z,1.70
2018-08-13T04:33:07.705Z,1.90
2018-08-13T04:34:07.741Z,1.90
2018-08-13T04:35:07.778Z,1.90
2018-08-13T04:36:07.810Z,1.70
2018-08-13T04:37:07.845Z,1.60
2018-08-13T04:38:07.881Z,1.50
2018-08-13T04:39:07.913Z,1.70
2018-08-13T04:40:07.970Z,1.60
2018-08-13T04:41:07.985Z,1.50
2018-08-13T04:42:08.018Z,1.80
2018-08-13T04:43:08.051Z,1.90
2018-08-13T04:44:08.087Z,1.70
2018-08-13T04:45:08.121Z,1.30
2018-08-13T04:46:08.157Z,1.80
2018-08-13T04:47:08.190Z,1.80
2018-08-13T04:48:08.225Z,1.60
2018-08-13T04:49:08.260Z,1.50
2018-08-13T04:50:08.295Z,2.00
2018-08-13T04:51:08.329Z,2.00
2018-08-13T04:52:08.420Z,1.90
2018-08-13T04:53:08.399Z,2.10
2018-08-13T04:54:08.435Z,1.70
2018-08-13T04:55:08.467Z,1.70
2018-08-13T04:56:08.503Z,1.60
2018-08-13T04:57:08.539Z,1.90
2018-08-13T04:58:08.573Z,1.90
2018-08-13T04:59:08.608Z,1.70
2018-08-13T05:00:08.643Z,1.90
2018-08-13T05:01:08.678Z,1.70
2018-08-13T05:02:08.713Z,1.80
2018-08-13T05:03:08.747Z,1.90
2018-08-13T05:04:08.782Z,1.80
2018-08-13T05:05:08.818Z,2.10
2018-08-13T05:06:09.057Z,2.20
2018-08-13T05:07:08.912Z,1.90
2018-08-13T05:08:08.923Z,2.00
2018-08-13T05:09:08.957Z,1.80
2018-08-13T05:10:08.993Z,1.80
2018-08-13T05:11:09.029Z,2.40
2018-08-13T05:12:09.066Z,2.20
2018-08-13T05:13:09.099Z,2.30
2018-08-13T05:14:09.135Z,2.10
2018-08-13T05:15:09.170Z,2.20
2018-08-13T05:16:09.206Z,2.60
2018-08-13T05:17:09.245Z,2.80
2018-08-13T05:18:09.277Z,2.30
2018-08-13T05:19:09.310Z,2.30
2018-08-13T05:20:09.348Z,2.70
2018-08-13T05:21:09.402Z,2.50
2018-08-13T05:22:09.420Z,2.30
2018-08-13T05:23:09.454Z,3.30
2018-08-13T05:24:09.492Z,2.60
2018-08-13T05:25:09.529Z,3.00
2018-08-13T05:26:09.568Z,2.80
2018-08-13T05:27:09.600Z,3.00
2018-08-13T05:28:09.637Z,2.90
2018-08-13T05:29:09.678Z,3.20
2018-08-13T05:30:09.713Z,3.70
2018-08-13T05:31:09.748Z,3.10
2018-08-13T05:32:09.785Z,3.00
2018-08-13T05:33:09.822Z,2.90
2018-08-13T05:34:09.865Z,3.00
2018-08-13T05:35:09.896Z,3.00
2018-08-13T05:36:09.934Z,3.30
2018-08-13T05:37:09.972Z,3.20
2018-08-13T05:38:10.075Z,3.20
2018-08-13T05:39:10.050Z,3.50
2018-08-13T05:40:10.085Z,3.30
2018-08-13T05:41:10.123Z,3.30
2018-08-13T05:42:10.162Z,3.70
2018-08-13T05:43:10.200Z,3.40
2018-08-13T05:44:10.241Z,3.10
2018-08-13T05:45:10.276Z,3.80
2018-08-13T05:46:10.314Z,3.20
2018-08-13T05:47:10.351Z,4.10
2018-08-13T05:48:10.389Z,3.20
2018-08-13T05:49:10.429Z,3.50
2018-08-13T05:50:10.467Z,3.30
2018-08-13T05:51:10.508Z,3.80
2018-08-13T05:52:10.545Z,3.20
2018-08-13T05:53:10.583Z,3.80
2018-08-13T05:54:10.622Z,3.70
2018-08-13T05:55:10.660Z,3.50
2018-08-13T05:56:10.699Z,5.70
2018-08-13T05:57:10.738Z,4.00
2018-08-13T05:58:10.777Z,4.10
2018-08-13T05:59:10.815Z,8.10
2018-08-13T06:00:10.860Z,4.30
2018-08-13T06:01:10.893Z,3.90
2018-08-13T06:02:10.936Z,3.60
2018-08-13T06:03:11.061Z,3.80
2018-08-13T06:04:11.009Z,3.40
2018-08-13T06:05:11.048Z,3.70
2018-08-13T06:06:11.088Z,4.00
2018-08-13T06:07:11.127Z,3.40
2018-08-13T06:08:11.165Z,3.70
2018-08-13T06:09:11.203Z,3.50
2018-08-13T06:10:11.246Z,3.70
2018-08-13T06:11:11.322Z,4.00
2018-08-13T06:12:11.318Z,3.10
2018-08-13T06:13:11.360Z,2.60
2018-08-13T06:14:11.400Z,3.20
2018-08-13T06:15:11.435Z,2.70
2018-08-13T06:16:11.474Z,3.00
2018-08-13T06:17:11.511Z,3.10
2018-08-13T06:18:11.689Z,3.00
2018-08-13T06:19:11.590Z,3.10
2018-08-13T06:20:11.628Z,2.90
2018-08-13T06:21:11.667Z,2.80
2018-08-13T06:22:11.712Z,3.20
2018-08-13T06:23:11.744Z,2.90
2018-08-13T06:24:11.850Z,2.80
2018-08-13T06:25:11.840Z,3.50
2018-08-13T06:26:11.860Z,3.60
2018-08-13T06:27:11.898Z,3.70
2018-08-13T06:28:12.011Z,3.40
2018-08-13T06:29:11.978Z,3.60
2018-08-13T06:30:12.084Z,3.80
2018-08-13T06:31:12.053Z,3.90
2018-08-13T06:32:12.090Z,3.20
2018-08-13T06:33:12.128Z,3.10
2018-08-13T06:34:12.167Z,4.80
2018-08-13T06:35:12.204Z,5.20
2018-08-13T06:36:12.244Z,4.60
2018-08-13T06:37:12.337Z,5.20
2018-08-13T06:38:12.320Z,4.60
2018-08-13T06:39:12.359Z,4.80
2018-08-13T06:40:12.397Z,5.10
2018-08-13T06:41:12.434Z,4.80
2018-08-13T06:42:12.475Z,4.60
2018-08-13T06:43:12.509Z,4.60
2018-08-13T06:44:12.547Z,5.50
2018-08-13T06:45:12.586Z,5.20
2018-08-13T06:46:12.625Z,5.60
2018-08-13T06:47:12.661Z,6.00
2018-08-13T06:48:12.699Z,6.10
2018-08-13T06:49:12.737Z,5.80
2018-08-13T06:50:12.780Z,5.80
2018-08-13T06:51:12.811Z,5.50
2018-08-13T06:52:12.850Z,6.20
2018-08-13T06:53:12.892Z,5.10
2018-08-13T06:54:12.929Z,6.20
2018-08-13T06:55:12.964Z,6.30
2018-08-13T06:56:13.002Z,7.00
2018-08-13T06:57:13.039Z,7.10
2018-08-13T06:58:13.076Z,6.40
2018-08-13T06:59:13.114Z,6.80
2018-08-13T07:00:13.153Z,6.00
2018-08-13T07:01:13.190Z,6.70
2018-08-13T07:02:13.228Z,6.80
2018-08-13T07:03:13.265Z,7.30
2018-08-13T07:04:13.301Z,7.90
2018-08-13T07:05:13.345Z,6.40
2018-08-13T07:06:13.403Z,6.40
2018-08-13T07:07:13.413Z,5.80
2018-08-13T07:08:13.450Z,6.70
2018-08-13T07:09:13.488Z,6.80
2018-08-13T07:10:13.527Z,6.50
2018-08-13T07:11:13.563Z,6.30
2018-08-13T07:12:13.600Z,6.60
2018-08-13T07:13:13.637Z,7.30
2018-08-13T07:14:13.675Z,7.10
2018-08-13T07:15:13.712Z,7.20
2018-08-13T07:16:13.749Z,6.50
2018-08-13T07:17:13.786Z,6.60
2018-08-13T07:18:13.825Z,7.00
2018-08-13T07:19:13.861Z,7.40
2018-08-13T07:20:13.897Z,7.70
2018-08-13T07:21:13.937Z,7.50
2018-08-13T07:22:14.041Z,7.40
2018-08-13T07:23:14.013Z,7.00
2018-08-13T07:24:14.050Z,7.30
2018-08-13T07:25:14.089Z,8.00
2018-08-13T07:26:14.128Z,7.60
2018-08-13T07:27:14.160Z,7.60
2018-08-13T07:28:14.257Z,7.10
2018-08-13T07:29:14.235Z,6.80
2018-08-13T07:30:14.272Z,6.20
2018-08-13T07:31:14.309Z,7.00
2018-08-13T07:32:14.346Z,7.40
2018-08-13T07:33:14.385Z,7.50
2018-08-13T07:34:14.422Z,7.60
2018-08-13T07:35:14.457Z,7.00
2018-08-13T07:36:14.495Z,6.40
2018-08-13T07:37:14.532Z,7.40
2018-08-13T07:38:14.576Z,7.30
2018-08-13T07:39:14.627Z,7.00
2018-08-13T07:40:14.644Z,7.00
2018-08-13T07:41:14.682Z,7.30
2018-08-13T07:42:14.720Z,7.70
2018-08-13T07:43:14.755Z,7.40
2018-08-13T07:44:14.794Z,7.40
2018-08-13T07:45:14.830Z,6.40
2018-08-13T07:46:14.867Z,7.00
2018-08-13T07:47:14.907Z,7.50
2018-08-13T07:48:14.942Z,8.10
2018-08-13T07:49:14.980Z,7.20
2018-08-13T07:50:15.017Z,6.50
2018-08-13T07:51:15.054Z,7.10
2018-08-13T07:52:15.091Z,7.20
2018-08-13T07:53:15.129Z,6.40
2018-08-13T07:54:15.167Z,6.10
2018-08-13T07:55:15.201Z,6.20
2018-08-13T07:56:15.240Z,6.60
2018-08-13T07:57:15.278Z,7.10
2018-08-13T07:58:15.315Z,7.80
2018-08-13T07:59:15.352Z,7.50
2018-08-13T08:00:15.393Z,8.10
2018-08-13T08:01:15.427Z,7.10
2018-08-13T08:02:15.465Z,6.80
2018-08-13T08:03:15.501Z,7.60
2018-08-13T08:04:15.540Z,7.30
2018-08-13T08:05:15.577Z,7.50
2018-08-13T08:06:15.613Z,7.20
2018-08-13T08:07:15.652Z,6.50
2018-08-13T08:08:15.690Z,7.40
2018-08-13T08:09:15.806Z,7.70
2018-08-13T08:10:15.770Z,7.90
2018-08-13T08:11:15.800Z,7.30
2018-08-13T08:12:15.839Z,7.90
2018-08-13T08:13:15.880Z,7.70
2018-08-13T08:14:15.914Z,7.80
2018-08-13T08:15:15.955Z,8.20
2018-08-13T08:16:15.990Z,7.30
2018-08-13T08:17:16.033Z,6.30
2018-08-13T08:18:16.068Z,6.30
2018-08-13T08:19:16.102Z,6.00
2018-08-13T08:20:16.141Z,5.30
2018-08-13T08:21:16.182Z,5.20
2018-08-13T08:22:16.216Z,5.10
2018-08-13T08:23:16.254Z,4.50
2018-08-13T08:24:16.291Z,5.10
2018-08-13T08:25:16.331Z,4.90
2018-08-13T08:26:16.372Z,4.40
2018-08-13T08:27:16.405Z,4.60
2018-08-13T08:28:16.445Z,3.90
2018-08-13T08:29:16.493Z,3.90
2018-08-13T08:30:16.523Z,4.30
2018-08-13T08:31:16.559Z,3.50
2018-08-13T08:32:16.600Z,3.80
2018-08-13T08:33:16.635Z,3.80
2018-08-13T08:34:16.673Z,3.80
2018-08-13T08:35:16.714Z,4.20
2018-08-13T08:36:16.749Z,3.90
2018-08-13T08:37:16.788Z,3.10
2018-08-13T08:38:16.824Z,3.60
2018-08-13T08:39:16.863Z,3.70
2018-08-13T08:40:16.904Z,3.40
2018-08-13T08:41:16.946Z,3.10
2018-08-13T08:42:16.979Z,3.30
2018-08-13T08:43:17.017Z,3.10
2018-08-13T08:44:17.054Z,2.80
2018-08-13T08:45:17.097Z,2.60
2018-08-13T08:46:17.132Z,2.90
2018-08-13T08:47:17.169Z,3.00
2018-08-13T08:48:17.208Z,3.00
2018-08-13T08:49:17.246Z,3.40
2018-08-13T08:50:17.285Z,2.50
2018-08-13T08:51:17.322Z,2.90
2018-08-13T08:52:17.360Z,2.60
2018-08-13T08:53:17.399Z,2.30
2018-08-13T08:54:17.439Z,2.30
2018-08-13T08:55:17.480Z,2.30
2018-08-13T08:56:17.513Z,2.60
2018-08-13T08:57:17.553Z,2.60
2018-08-13T08:58:17.589Z,2.70
2018-08-13T08:59:17.627Z,2.60
2018-08-13T09:00:17.667Z,2.60
2018-08-13T09:01:17.704Z,2.50
2018-08-13T09:02:17.745Z,2.40
2018-08-13T09:03:17.781Z,2.40
2018-08-13T09:04:17.820Z,2.40
2018-08-13T09:05:17.857Z,2.30
2018-08-13T09:06:17.895Z,2.20
2018-08-13T09:07:17.933Z,2.50
2018-08-13T09:08:17.971Z,2.20
2018-08-13T09:09:18.011Z,2.60
2018-08-13T09:10:18.049Z,2.40
2018-08-13T09:11:18.086Z,2.40
2018-08-13T09:12:18.124Z,2.40
2018-08-13T09:13:18.204Z,2.20
2018-08-13T09:14:18.294Z,2.40
2018-08-13T09:15:18.237Z,2.90
2018-08-13T09:16:18.276Z,2.30
2018-08-13T09:17:18.316Z,2.50
2018-08-13T09:18:18.353Z,2.50
2018-08-13T09:19:18.391Z,2.70
2018-08-13T09:20:18.431Z,2.90
2018-08-13T09:21:18.467Z,2.80
2018-08-13T09:22:18.506Z,2.70
2018-08-13T09:23:18.544Z,3.10
2018-08-13T09:24:18.582Z,2.70
2018-08-13T09:25:18.619Z,2.90
2018-08-13T09:26:18.659Z,3.00
2018-08-13T09:27:18.697Z,2.70
2018-08-13T09:28:18.734Z,2.30
2018-08-13T09:29:18.773Z,2.70
2018-08-13T09:30:18.812Z,2.40
2018-08-13T09:31:18.849Z,2.50
2018-08-13T09:32:18.885Z,2.10
2018-08-13T09:33:18.925Z,2.60
2018-08-13T09:34:18.964Z,2.50
2018-08-13T09:35:19.025Z,2.40
2018-08-13T09:36:19.041Z,2.90
2018-08-13T09:37:19.103Z,2.20
2018-08-13T09:39:19.377Z,2.10
2018-08-13T09:40:19.191Z,2.50
2018-08-13T09:41:19.230Z,2.80
2018-08-13T09:42:19.272Z,2.40
2018-08-13T09:43:19.307Z,2.50
2018-08-13T09:44:19.343Z,2.30
2018-08-13T09:45:19.382Z,2.20
2018-08-13T09:46:19.423Z,2.30
2018-08-13T09:47:19.460Z,2.60
2018-08-13T09:48:19.497Z,2.60
2018-08-13T09:49:19.535Z,2.30
2018-08-13T09:50:19.574Z,2.30
2018-08-13T09:51:19.611Z,2.30
2018-08-13T09:52:19.650Z,2.10
2018-08-13T09:53:19.688Z,2.70
2018-08-13T09:54:19.727Z,2.40
2018-08-13T09:55:19.764Z,2.80
2018-08-13T09:56:19.801Z,3.00
2018-08-13T09:57:19.842Z,2.50
2018-08-13T09:58:19.880Z,2.40
2018-08-13T09:59:19.917Z,2.60
2018-08-13T10:00:19.973Z,2.20
2018-08-13T10:01:19.994Z,2.10
2018-08-13T10:02:20.032Z,2.10
2018-08-13T10:03:20.071Z,2.30
2018-08-13T10:04:20.108Z,2.20
2018-08-13T10:05:20.148Z,2.60
2018-08-13T10:06:20.186Z,2.50
2018-08-13T10:07:20.224Z,2.20
2018-08-13T10:08:20.262Z,2.20
2018-08-13T10:09:20.341Z,2.00
2018-08-13T10:10:20.340Z,2.10
2018-08-13T10:11:20.378Z,2.10
2018-08-13T10:12:20.417Z,2.10
2018-08-13T10:13:20.458Z,2.40
2018-08-13T10:14:20.494Z,1.90
2018-08-13T10:15:20.537Z,2.00
2018-08-13T10:16:20.569Z,2.30
2018-08-13T10:17:20.610Z,2.30
2018-08-13T10:18:20.649Z,1.80
2018-08-13T10:19:20.686Z,2.10
2018-08-13T10:20:20.747Z,1.80
2018-08-13T10:21:20.767Z,2.20
2018-08-13T10:22:20.803Z,2.20
2018-08-13T10:23:20.840Z,2.10
2018-08-13T10:24:20.880Z,1.90
2018-08-13T10:25:20.920Z,2.00
2018-08-13T10:26:20.959Z,2.10
2018-08-13T10:27:20.997Z,1.80
2018-08-13T10:28:21.035Z,2.10
2018-08-13T10:29:21.074Z,2.00
2018-08-13T10:30:21.115Z,1.90
2018-08-13T10:31:21.154Z,2.30
2018-08-13T10:32:21.215Z,2.20
2018-08-13T10:33:21.231Z,2.30
2018-08-13T10:34:21.274Z,1.80
2018-08-13T10:35:21.311Z,2.10
2018-08-13T10:36:21.351Z,2.30
2018-08-13T10:37:21.960Z,2.30
2018-08-13T10:38:22.846Z,2.10
2018-08-13T10:39:21.881Z,2.00
2018-08-13T10:40:21.509Z,1.90
2018-08-13T10:41:21.552Z,1.90
2018-08-13T10:42:21.591Z,1.60
2018-08-13T10:43:21.635Z,2.10
2018-08-13T10:44:21.672Z,1.90
2018-08-13T10:45:21.712Z,1.90
2018-08-13T10:46:21.758Z,1.90
2018-08-13T10:47:21.794Z,1.90
2018-08-13T10:48:21.836Z,1.90
2018-08-13T10:49:21.877Z,1.50
2018-08-13T10:50:21.919Z,1.90
2018-08-13T10:51:21.960Z,1.80
2018-08-13T10:52:22.001Z,1.80
2018-08-13T10:53:22.042Z,1.60
2018-08-13T10:54:22.088Z,1.80
2018-08-13T10:55:22.127Z,2.00
2018-08-13T10:56:22.168Z,2.10
2018-08-13T10:57:22.211Z,1.80
2018-08-13T10:58:22.252Z,1.80
2018-08-13T10:59:22.295Z,1.60
2018-08-13T11:00:22.338Z,1.80
2018-08-13T11:01:22.385Z,1.70
2018-08-13T11:02:22.423Z,2.00
2018-08-13T11:03:22.464Z,1.50
2018-08-13T11:04:22.507Z,1.90
2018-08-13T11:05:22.551Z,1.70
2018-08-13T11:06:22.613Z,1.50
2018-08-13T11:09:22.745Z,2.00
2018-08-13T11:10:22.798Z,1.90
2018-08-13T11:11:22.803Z,1.80
2018-08-13T11:12:22.848Z,2.00
2018-08-13T11:13:22.906Z,1.60
2018-08-13T11:14:22.937Z,1.70
2018-08-13T11:15:22.978Z,1.70
2018-08-13T11:16:23.026Z,1.60
2018-08-13T11:17:23.067Z,1.70
2018-08-13T11:19:23.155Z,1.70
2018-08-13T11:20:23.202Z,1.80
2018-08-13T11:21:25.868Z,2.00
2018-08-13T11:22:23.297Z,1.80
2018-08-13T11:23:23.336Z,1.80
2018-08-13T11:24:23.390Z,2.00
2018-08-13T11:25:23.556Z,1.70
2018-08-13T11:26:23.474Z,1.80
2018-08-13T11:27:26.142Z,1.90
2018-08-13T11:28:23.566Z,1.70
2018-08-13T11:29:23.613Z,1.70
2018-08-13T11:30:23.666Z,1.80
2018-08-13T11:31:23.709Z,1.60
2018-08-13T11:32:23.780Z,1.50
2018-08-13T11:33:23.803Z,2.00
2018-08-13T11:34:23.852Z,1.60
2018-08-13T11:35:23.901Z,1.90
2018-08-13T11:36:23.974Z,1.40
2018-08-13T11:37:23.997Z,1.70
2018-08-13T11:38:24.049Z,1.50
2018-08-13T11:39:24.097Z,1.60
2018-08-13T11:40:24.145Z,1.70
2018-08-13T11:41:24.194Z,1.50
2018-08-13T11:42:24.243Z,1.60
2018-08-13T11:43:24.292Z,1.70
2018-08-13T11:44:24.343Z,1.70
2018-08-13T11:46:24.525Z,1.60
2018-08-13T11:47:24.488Z,1.80
2018-08-13T11:48:24.560Z,1.90
2018-08-13T11:49:24.607Z,1.90
2018-08-13T11:50:24.837Z,1.50
2018-08-13T11:51:24.683Z,1.40
2018-08-13T11:52:24.769Z,1.40
2018-08-13T11:53:24.783Z,1.60
2018-08-13T11:54:24.832Z,1.30
2018-08-13T11:55:24.880Z,1.40
2018-08-13T11:56:24.985Z,1.40
2018-08-13T11:57:25.004Z,1.40
2018-08-13T11:58:25.027Z,1.50
2018-08-13T11:59:25.077Z,1.70
2018-08-13T12:00:25.126Z,1.80
2018-08-13T12:01:25.174Z,1.60
2018-08-13T12:02:25.223Z,1.70
2018-08-13T12:03:25.269Z,1.30
2018-08-13T12:04:25.320Z,1.80
2018-08-13T12:05:25.379Z,1.40
2018-08-13T12:06:25.413Z,2.10
2018-08-13T12:07:25.460Z,1.80
2018-08-13T12:08:25.565Z,1.80
2018-08-13T12:09:25.555Z,1.60
2018-08-13T12:10:25.600Z,1.60
2018-08-13T12:11:25.647Z,1.70
2018-08-13T12:12:25.693Z,2.00
2018-08-13T12:13:25.739Z,1.70
2018-08-13T12:14:25.798Z,2.10
2018-08-13T12:15:25.829Z,1.80
2018-08-13T12:16:25.875Z,2.10
2018-08-13T12:17:25.921Z,1.90
2018-08-13T12:18:25.966Z,2.20
2018-08-13T12:19:26.040Z,2.40
2018-08-13T12:20:26.058Z,2.20
2018-08-13T12:21:26.098Z,2.00
2018-08-13T12:22:26.143Z,2.20
2018-08-13T12:23:26.188Z,2.00
2018-08-13T12:24:26.232Z,1.70
2018-08-13T12:25:26.278Z,1.90
2018-08-13T12:26:26.381Z,1.90
2018-08-13T12:27:26.366Z,1.80
2018-08-13T12:28:26.408Z,1.70
2018-08-13T12:29:26.453Z,1.70
2018-08-13T12:30:26.498Z,1.90
2018-08-13T12:31:26.544Z,1.80
2018-08-13T12:32:26.588Z,2.30
2018-08-13T12:33:26.666Z,1.90
2018-08-13T12:34:26.679Z,1.70
2018-08-13T12:35:26.722Z,1.80
2018-08-13T12:36:26.767Z,2.10
2018-08-13T12:37:26.812Z,1.90
2018-08-13T12:38:26.856Z,1.80
2018-08-13T12:39:26.900Z,1.60
2018-08-13T12:40:26.949Z,1.80
2018-08-13T12:41:26.991Z,1.80
2018-08-13T12:42:27.038Z,2.10
2018-08-13T12:43:27.081Z,1.80
2018-08-13T12:44:27.126Z,2.20
2018-08-13T12:45:27.172Z,1.70
2018-08-13T12:46:27.214Z,1.90
2018-08-13T12:47:27.299Z,2.10
2018-08-13T12:48:27.308Z,2.50
2018-08-13T12:49:27.349Z,1.70
2018-08-13T12:50:28.809Z,1.30
2018-08-13T12:51:27.445Z,1.20
2018-08-13T12:52:27.480Z,1.00
2018-08-13T12:53:27.529Z,1.30
2018-08-13T12:54:27.568Z,0.90
2018-08-13T12:55:27.609Z,1.00
2018-08-13T12:56:27.653Z,0.90
2018-08-13T12:57:27.696Z,1.00
2018-08-13T12:58:27.738Z,1.20
2018-08-13T12:59:27.784Z,1.10
2018-08-13T13:00:27.821Z,1.80
2018-08-13T13:01:27.862Z,1.10
2018-08-13T13:02:27.905Z,1.20
2018-08-13T13:03:27.946Z,1.20
2018-08-13T13:04:27.988Z,1.40
2018-08-13T13:05:28.056Z,1.40
2018-08-13T13:06:28.071Z,1.30
2018-08-13T13:07:28.118Z,1.70
2018-08-13T13:08:28.153Z,1.50
2018-08-13T13:09:28.195Z,1.30
2018-08-13T13:10:28.236Z,1.40
2018-08-13T13:11:28.276Z,1.60
2018-08-13T13:12:28.317Z,1.50
2018-08-13T13:13:28.358Z,1.50
2018-08-13T13:14:28.398Z,1.40
2018-08-13T13:15:28.440Z,1.60
2018-08-13T13:16:28.481Z,1.30
2018-08-13T13:17:28.522Z,1.50
2018-08-13T13:18:28.561Z,1.40
2018-08-13T13:19:28.602Z,1.20
2018-08-13T13:20:28.647Z,1.30
2018-08-13T13:21:28.685Z,1.30
2018-08-13T13:22:28.729Z,1.20
2018-08-13T13:23:28.775Z,1.50
2018-08-13T13:24:28.829Z,1.80